sensor_id;sensor_type;location;lat;lon;timestamp;P1;durP1;ratioP1;P2;durP2;ratioP2
42146;SDS011;27815;43.410;11.852;2023-07-31T00:00:27;4.30;;;2.40;;
42146;SDS011;27815;43.410;11.852;2023-07-31T00:04:31;5.20;;;2.70;;
42146;SDS011;27815;43.410;11.852;2023-07-31T00:08:35;8.55;;;2.60;;
42146;SDS011;27815;43.410;11.852;2023-07-31T00:12:41;3.53;;;2.40;;
42146;SDS011;27815;43.410;11.852;2023-07-31T00:16:49;3.97;;;2.45;;
42146;SDS011;27815;43.410;11.852;2023-07-31T00:20:55;4.22;;;2.15;;
42146;SDS011;27815;43.410;11.852;2023-07-31T00:24:58;6.00;;;2.58;;
42146;SDS011;27815;43.410;11.852;2023-07-31T00:29:04;4.85;;;2.72;;
42146;SDS011;27815;43.410;11.852;2023-07-31T00:33:08;5.93;;;2.83;;
42146;SDS011;27815;43.410;11.852;2023-07-31T00:37:12;4.40;;;2.83;;
42146;SDS011;27815;43.410;11.852;2023-07-31T00:41:17;4.13;;;2.80;;
42146;SDS011;27815;43.410;11.852;2023-07-31T00:45:23;5.88;;;3.30;;
42146;SDS011;27815;43.410;11.852;2023-07-31T00:49:34;5.65;;;2.63;;
42146;SDS011;27815;43.410;11.852;2023-07-31T00:53:38;4.93;;;3.20;;
42146;SDS011;27815;43.410;11.852;2023-07-31T00:57:45;5.35;;;3.10;;
42146;SDS011;27815;43.410;11.852;2023-07-31T01:01:48;5.68;;;3.15;;
42146;SDS011;27815;43.410;11.852;2023-07-31T01:05:58;4.10;;;2.80;;
42146;SDS011;27815;43.410;11.852;2023-07-31T01:10:17;4.65;;;2.92;;
42146;SDS011;27815;43.410;11.852;2023-07-31T01:14:27;5.38;;;3.10;;
42146;SDS011;27815;43.410;11.852;2023-07-31T01:18:31;4.57;;;2.75;;
42146;SDS011;27815;43.410;11.852;2023-07-31T01:27:47;4.55;;;2.95;;
42146;SDS011;27815;43.410;11.852;2023-07-31T01:32:06;3.60;;;2.38;;
42146;SDS011;27815;43.410;11.852;2023-07-31T01:36:16;6.35;;;3.00;;
42146;SDS011;27815;43.410;11.852;2023-07-31T01:40:20;6.93;;;3.10;;
42146;SDS011;27815;43.410;11.852;2023-07-31T01:44:26;6.43;;;3.10;;
42146;SDS011;27815;43.410;11.852;2023-07-31T01:48:33;6.43;;;2.78;;
42146;SDS011;27815;43.410;11.852;2023-07-31T01:52:54;4.72;;;2.80;;
42146;SDS011;27815;43.410;11.852;2023-07-31T01:57:14;4.57;;;3.22;;
42146;SDS011;27815;43.410;11.852;2023-07-31T02:01:47;5.72;;;3.60;;
42146;SDS011;27815;43.410;11.852;2023-07-31T02:05:56;7.68;;;3.60;;
42146;SDS011;27815;43.410;11.852;2023-07-31T02:10:00;5.50;;;3.65;;
42146;SDS011;27815;43.410;11.852;2023-07-31T02:14:04;6.88;;;3.80;;
42146;SDS011;27815;43.410;11.852;2023-07-31T02:18:12;7.68;;;3.97;;
42146;SDS011;27815;43.410;11.852;2023-07-31T02:22:17;4.85;;;3.50;;
42146;SDS011;27815;43.410;11.852;2023-07-31T02:26:22;6.03;;;3.38;;
42146;SDS011;27815;43.410;11.852;2023-07-31T02:30:25;8.23;;;4.55;;
42146;SDS011;27815;43.410;11.852;2023-07-31T02:34:29;6.00;;;4.28;;
42146;SDS011;27815;43.410;11.852;2023-07-31T02:38:37;5.85;;;4.10;;
42146;SDS011;27815;43.410;11.852;2023-07-31T02:42:41;4.82;;;3.80;;
42146;SDS011;27815;43.410;11.852;2023-07-31T02:46:47;5.85;;;4.03;;
42146;SDS011;27815;43.410;11.852;2023-07-31T02:50:52;4.78;;;3.80;;
42146;SDS011;27815;43.410;11.852;2023-07-31T02:54:57;5.10;;;4.30;;
42146;SDS011;27815;43.410;11.852;2023-07-31T02:59:01;8.65;;;4.03;;
42146;SDS011;27815;43.410;11.852;2023-07-31T03:03:05;8.00;;;4.13;;
42146;SDS011;27815;43.410;11.852;2023-07-31T03:07:11;7.53;;;4.30;;
42146;SDS011;27815;43.410;11.852;2023-07-31T03:11:18;6.07;;;4.38;;
42146;SDS011;27815;43.410;11.852;2023-07-31T03:15:22;7.00;;;4.40;;
42146;SDS011;27815;43.410;11.852;2023-07-31T03:19:32;5.10;;;4.47;;
42146;SDS011;27815;43.410;11.852;2023-07-31T03:23:38;5.93;;;4.35;;
42146;SDS011;27815;43.410;11.852;2023-07-31T03:27:43;5.50;;;4.78;;
42146;SDS011;27815;43.410;11.852;2023-07-31T03:31:46;6.55;;;4.70;;
42146;SDS011;27815;43.410;11.852;2023-07-31T03:35:50;5.72;;;4.20;;
42146;SDS011;27815;43.410;11.852;2023-07-31T03:39:57;11.10;;;4.22;;
42146;SDS011;27815;43.410;11.852;2023-07-31T03:44:02;6.00;;;4.20;;
42146;SDS011;27815;43.410;11.852;2023-07-31T03:48:08;5.38;;;4.22;;
42146;SDS011;27815;43.410;11.852;2023-07-31T03:52:12;5.68;;;4.20;;
42146;SDS011;27815;43.410;11.852;2023-07-31T03:56:22;7.10;;;3.83;;
42146;SDS011;27815;43.410;11.852;2023-07-31T04:00:28;5.93;;;3.90;;
42146;SDS011;27815;43.410;11.852;2023-07-31T04:04:31;7.18;;;4.13;;
42146;SDS011;27815;43.410;11.852;2023-07-31T04:08:37;6.78;;;4.13;;
42146;SDS011;27815;43.410;11.852;2023-07-31T04:12:40;8.55;;;4.22;;
42146;SDS011;27815;43.410;11.852;2023-07-31T04:16:47;7.30;;;4.10;;
42146;SDS011;27815;43.410;11.852;2023-07-31T04:20:51;6.60;;;4.13;;
42146;SDS011;27815;43.410;11.852;2023-07-31T04:24:57;6.27;;;3.80;;
42146;SDS011;27815;43.410;11.852;2023-07-31T04:29:02;6.93;;;4.45;;
42146;SDS011;27815;43.410;11.852;2023-07-31T04:33:08;5.82;;;4.35;;
42146;SDS011;27815;43.410;11.852;2023-07-31T04:37:12;7.72;;;5.32;;
42146;SDS011;27815;43.410;11.852;2023-07-31T04:41:21;6.05;;;4.55;;
42146;SDS011;27815;43.410;11.852;2023-07-31T04:45:24;6.20;;;3.90;;
42146;SDS011;27815;43.410;11.852;2023-07-31T04:49:26;7.20;;;4.38;;
42146;SDS011;27815;43.410;11.852;2023-07-31T04:53:35;58.38;;;13.35;;
42146;SDS011;27815;43.410;11.852;2023-07-31T04:57:40;5.93;;;3.97;;
42146;SDS011;27815;43.410;11.852;2023-07-31T05:01:47;7.80;;;4.40;;
42146;SDS011;27815;43.410;11.852;2023-07-31T05:05:51;7.80;;;4.78;;
42146;SDS011;27815;43.410;11.852;2023-07-31T05:09:58;9.73;;;4.75;;
42146;SDS011;27815;43.410;11.852;2023-07-31T05:14:04;6.28;;;4.88;;
42146;SDS011;27815;43.410;11.852;2023-07-31T05:18:07;8.52;;;4.95;;
42146;SDS011;27815;43.410;11.852;2023-07-31T05:22:14;6.50;;;4.85;;
42146;SDS011;27815;43.410;11.852;2023-07-31T05:26:20;6.97;;;4.88;;
42146;SDS011;27815;43.410;11.852;2023-07-31T05:30:26;8.65;;;4.97;;
42146;SDS011;27815;43.410;11.852;2023-07-31T05:34:31;7.00;;;5.13;;
42146;SDS011;27815;43.410;11.852;2023-07-31T05:38:36;5.65;;;4.90;;
42146;SDS011;27815;43.410;11.852;2023-07-31T05:42:41;8.48;;;5.30;;
42146;SDS011;27815;43.410;11.852;2023-07-31T05:46:47;6.55;;;4.75;;
42146;SDS011;27815;43.410;11.852;2023-07-31T05:50:56;10.57;;;4.70;;
42146;SDS011;27815;43.410;11.852;2023-07-31T05:55:03;4.65;;;4.18;;
42146;SDS011;27815;43.410;11.852;2023-07-31T05:59:09;7.32;;;4.20;;
42146;SDS011;27815;43.410;11.852;2023-07-31T06:03:19;7.90;;;4.05;;
42146;SDS011;27815;43.410;11.852;2023-07-31T06:07:28;8.18;;;4.43;;
42146;SDS011;27815;43.410;11.852;2023-07-31T06:11:32;5.55;;;4.43;;
42146;SDS011;27815;43.410;11.852;2023-07-31T06:15:40;9.18;;;6.00;;
42146;SDS011;27815;43.410;11.852;2023-07-31T06:19:45;6.38;;;4.85;;
42146;SDS011;27815;43.410;11.852;2023-07-31T06:23:50;5.30;;;4.80;;
42146;SDS011;27815;43.410;11.852;2023-07-31T06:28:05;6.45;;;4.63;;
42146;SDS011;27815;43.410;11.852;2023-07-31T06:32:10;6.93;;;4.97;;
42146;SDS011;27815;43.410;11.852;2023-07-31T06:36:23;6.80;;;5.13;;
42146;SDS011;27815;43.410;11.852;2023-07-31T06:40:27;7.57;;;4.78;;
42146;SDS011;27815;43.410;11.852;2023-07-31T06:44:31;7.10;;;4.70;;
42146;SDS011;27815;43.410;11.852;2023-07-31T06:48:36;6.05;;;5.00;;
42146;SDS011;27815;43.410;11.852;2023-07-31T06:52:40;8.50;;;4.75;;
42146;SDS011;27815;43.410;11.852;2023-07-31T06:56:44;6.50;;;4.70;;
42146;SDS011;27815;43.410;11.852;2023-07-31T07:00:47;7.10;;;4.43;;
42146;SDS011;27815;43.410;11.852;2023-07-31T07:04:52;7.65;;;5.55;;
42146;SDS011;27815;43.410;11.852;2023-07-31T07:08:54;7.68;;;4.90;;
42146;SDS011;27815;43.410;11.852;2023-07-31T07:12:59;7.57;;;4.82;;
42146;SDS011;27815;43.410;11.852;2023-07-31T07:17:04;7.88;;;4.70;;
42146;SDS011;27815;43.410;11.852;2023-07-31T07:21:07;7.70;;;4.72;;
42146;SDS011;27815;43.410;11.852;2023-07-31T07:25:12;7.05;;;4.38;;
42146;SDS011;27815;43.410;11.852;2023-07-31T07:29:17;6.05;;;4.00;;
42146;SDS011;27815;43.410;11.852;2023-07-31T07:33:21;5.40;;;3.60;;
42146;SDS011;27815;43.410;11.852;2023-07-31T07:37:25;5.78;;;3.97;;
42146;SDS011;27815;43.410;11.852;2023-07-31T07:41:28;6.10;;;3.67;;
42146;SDS011;27815;43.410;11.852;2023-07-31T07:45:32;11.05;;;3.47;;
42146;SDS011;27815;43.410;11.852;2023-07-31T07:49:36;5.90;;;3.05;;
42146;SDS011;27815;43.410;11.852;2023-07-31T07:53:39;5.85;;;2.83;;
42146;SDS011;27815;43.410;11.852;2023-07-31T07:57:42;4.72;;;2.70;;
42146;SDS011;27815;43.410;11.852;2023-07-31T08:01:46;4.60;;;2.50;;
42146;SDS011;27815;43.410;11.852;2023-07-31T08:05:49;3.35;;;2.20;;
42146;SDS011;27815;43.410;11.852;2023-07-31T08:09:52;7.45;;;2.83;;
42146;SDS011;27815;43.410;11.852;2023-07-31T08:13:58;5.18;;;2.38;;
42146;SDS011;27815;43.410;11.852;2023-07-31T08:18:01;4.47;;;2.20;;
42146;SDS011;27815;43.410;11.852;2023-07-31T08:22:07;5.25;;;2.20;;
42146;SDS011;27815;43.410;11.852;2023-07-31T08:26:16;4.28;;;1.90;;
42146;SDS011;27815;43.410;11.852;2023-07-31T08:30:20;3.65;;;2.08;;
42146;SDS011;27815;43.410;11.852;2023-07-31T08:34:24;4.75;;;2.55;;
42146;SDS011;27815;43.410;11.852;2023-07-31T08:38:28;5.53;;;2.17;;
42146;SDS011;27815;43.410;11.852;2023-07-31T08:42:42;4.97;;;2.28;;
42146;SDS011;27815;43.410;11.852;2023-07-31T08:46:52;4.57;;;1.95;;
42146;SDS011;27815;43.410;11.852;2023-07-31T08:51:00;4.78;;;1.98;;
42146;SDS011;27815;43.410;11.852;2023-07-31T08:55:02;4.82;;;2.20;;
42146;SDS011;27815;43.410;11.852;2023-07-31T08:59:07;3.75;;;2.00;;
42146;SDS011;27815;43.410;11.852;2023-07-31T09:03:16;3.88;;;2.13;;
42146;SDS011;27815;43.410;11.852;2023-07-31T09:07:20;4.55;;;2.00;;
42146;SDS011;27815;43.410;11.852;2023-07-31T09:11:24;4.05;;;1.70;;
42146;SDS011;27815;43.410;11.852;2023-07-31T09:15:27;4.72;;;1.90;;
42146;SDS011;27815;43.410;11.852;2023-07-31T09:19:40;3.63;;;1.65;;
42146;SDS011;27815;43.410;11.852;2023-07-31T09:23:43;4.22;;;2.10;;
42146;SDS011;27815;43.410;11.852;2023-07-31T09:28:03;3.97;;;1.73;;
42146;SDS011;27815;43.410;11.852;2023-07-31T09:32:15;3.80;;;1.85;;
42146;SDS011;27815;43.410;11.852;2023-07-31T09:36:22;3.45;;;2.00;;
42146;SDS011;27815;43.410;11.852;2023-07-31T09:40:36;4.78;;;1.90;;
42146;SDS011;27815;43.410;11.852;2023-07-31T09:44:41;3.90;;;2.03;;
42146;SDS011;27815;43.410;11.852;2023-07-31T09:48:44;3.33;;;1.77;;
42146;SDS011;27815;43.410;11.852;2023-07-31T09:52:51;3.95;;;2.05;;
42146;SDS011;27815;43.410;11.852;2023-07-31T09:56:55;3.95;;;1.80;;
42146;SDS011;27815;43.410;11.852;2023-07-31T10:01:01;6.07;;;2.15;;
42146;SDS011;27815;43.410;11.852;2023-07-31T10:05:05;3.95;;;1.80;;
42146;SDS011;27815;43.410;11.852;2023-07-31T10:09:11;4.65;;;1.52;;
42146;SDS011;27815;43.410;11.852;2023-07-31T10:13:19;3.67;;;1.90;;
42146;SDS011;27815;43.410;11.852;2023-07-31T10:17:24;3.88;;;1.77;;
42146;SDS011;27815;43.410;11.852;2023-07-31T10:21:28;11.40;;;2.00;;
42146;SDS011;27815;43.410;11.852;2023-07-31T10:25:33;5.78;;;2.10;;
42146;SDS011;27815;43.410;11.852;2023-07-31T10:29:38;3.25;;;1.60;;
42146;SDS011;27815;43.410;11.852;2023-07-31T10:33:46;4.20;;;1.95;;
42146;SDS011;27815;43.410;11.852;2023-07-31T10:37:49;3.63;;;1.67;;
42146;SDS011;27815;43.410;11.852;2023-07-31T10:41:52;2.63;;;1.40;;
42146;SDS011;27815;43.410;11.852;2023-07-31T10:45:55;4.35;;;1.80;;
42146;SDS011;27815;43.410;11.852;2023-07-31T10:50:10;3.95;;;1.85;;
42146;SDS011;27815;43.410;11.852;2023-07-31T10:54:25;3.78;;;1.67;;
42146;SDS011;27815;43.410;11.852;2023-07-31T10:58:29;5.82;;;2.17;;
42146;SDS011;27815;43.410;11.852;2023-07-31T11:02:35;3.72;;;1.80;;
42146;SDS011;27815;43.410;11.852;2023-07-31T11:06:39;4.00;;;1.92;;
42146;SDS011;27815;43.410;11.852;2023-07-31T11:10:42;3.88;;;1.77;;
42146;SDS011;27815;43.410;11.852;2023-07-31T11:14:53;4.78;;;2.00;;
42146;SDS011;27815;43.410;11.852;2023-07-31T11:18:57;5.05;;;2.05;;
42146;SDS011;27815;43.410;11.852;2023-07-31T11:23:05;3.85;;;1.98;;
42146;SDS011;27815;43.410;11.852;2023-07-31T11:27:10;5.60;;;2.00;;
42146;SDS011;27815;43.410;11.852;2023-07-31T11:31:18;4.78;;;2.00;;
42146;SDS011;27815;43.410;11.852;2023-07-31T11:35:23;2.78;;;1.52;;
42146;SDS011;27815;43.410;11.852;2023-07-31T11:39:26;3.58;;;1.67;;
42146;SDS011;27815;43.410;11.852;2023-07-31T11:43:30;4.85;;;1.75;;
42146;SDS011;27815;43.410;11.852;2023-07-31T11:47:34;4.17;;;2.10;;
42146;SDS011;27815;43.410;11.852;2023-07-31T11:51:45;4.95;;;2.10;;
42146;SDS011;27815;43.410;11.852;2023-07-31T11:55:59;3.40;;;1.65;;
42146;SDS011;27815;43.410;11.852;2023-07-31T12:00:05;4.55;;;1.85;;
42146;SDS011;27815;43.410;11.852;2023-07-31T12:04:14;4.13;;;1.90;;
42146;SDS011;27815;43.410;11.852;2023-07-31T12:08:24;3.85;;;1.77;;
42146;SDS011;27815;43.410;11.852;2023-07-31T12:12:32;4.70;;;1.90;;
42146;SDS011;27815;43.410;11.852;2023-07-31T12:16:43;3.58;;;1.70;;
42146;SDS011;27815;43.410;11.852;2023-07-31T12:21:20;3.08;;;1.77;;
42146;SDS011;27815;43.410;11.852;2023-07-31T12:25:28;3.35;;;1.90;;
42146;SDS011;27815;43.410;11.852;2023-07-31T12:29:33;3.65;;;1.60;;
42146;SDS011;27815;43.410;11.852;2023-07-31T12:33:43;4.80;;;2.33;;
42146;SDS011;27815;43.410;11.852;2023-07-31T12:37:46;4.15;;;1.83;;
42146;SDS011;27815;43.410;11.852;2023-07-31T12:41:53;6.10;;;1.90;;
42146;SDS011;27815;43.410;11.852;2023-07-31T12:46:05;3.47;;;1.77;;
42146;SDS011;27815;43.410;11.852;2023-07-31T12:50:12;3.13;;;1.42;;
42146;SDS011;27815;43.410;11.852;2023-07-31T12:54:45;3.95;;;1.90;;
42146;SDS011;27815;43.410;11.852;2023-07-31T12:58:50;2.88;;;1.50;;
42146;SDS011;27815;43.410;11.852;2023-07-31T13:03:06;3.13;;;1.80;;
42146;SDS011;27815;43.410;11.852;2023-07-31T13:07:13;3.10;;;1.70;;
42146;SDS011;27815;43.410;11.852;2023-07-31T13:11:17;3.85;;;1.52;;
42146;SDS011;27815;43.410;11.852;2023-07-31T13:15:21;3.25;;;1.45;;
42146;SDS011;27815;43.410;11.852;2023-07-31T13:19:25;3.33;;;1.50;;
42146;SDS011;27815;43.410;11.852;2023-07-31T13:23:29;4.03;;;1.85;;
42146;SDS011;27815;43.410;11.852;2023-07-31T13:27:42;2.95;;;1.50;;
42146;SDS011;27815;43.410;11.852;2023-07-31T13:31:45;3.97;;;1.80;;
42146;SDS011;27815;43.410;11.852;2023-07-31T13:35:53;4.88;;;1.70;;
42146;SDS011;27815;43.410;11.852;2023-07-31T13:40:03;2.58;;;1.20;;
42146;SDS011;27815;43.410;11.852;2023-07-31T13:44:07;3.25;;;1.70;;
42146;SDS011;27815;43.410;11.852;2023-07-31T13:48:10;3.22;;;1.67;;
42146;SDS011;27815;43.410;11.852;2023-07-31T13:52:14;4.65;;;1.95;;
42146;SDS011;27815;43.410;11.852;2023-07-31T13:56:17;4.32;;;1.60;;
42146;SDS011;27815;43.410;11.852;2023-07-31T14:00:20;3.20;;;1.70;;
42146;SDS011;27815;43.410;11.852;2023-07-31T14:04:24;4.00;;;1.73;;
42146;SDS011;27815;43.410;11.852;2023-07-31T14:08:27;4.35;;;1.92;;
42146;SDS011;27815;43.410;11.852;2023-07-31T14:12:29;4.13;;;1.73;;
42146;SDS011;27815;43.410;11.852;2023-07-31T14:16:43;3.20;;;1.70;;
42146;SDS011;27815;43.410;11.852;2023-07-31T14:20:47;3.30;;;1.55;;
42146;SDS011;27815;43.410;11.852;2023-07-31T14:24:49;3.67;;;1.67;;
42146;SDS011;27815;43.410;11.852;2023-07-31T14:28:52;3.30;;;1.60;;
42146;SDS011;27815;43.410;11.852;2023-07-31T14:32:55;4.25;;;1.67;;
42146;SDS011;27815;43.410;11.852;2023-07-31T14:37:00;5.07;;;1.63;;
42146;SDS011;27815;43.410;11.852;2023-07-31T14:41:02;3.75;;;1.90;;
42146;SDS011;27815;43.410;11.852;2023-07-31T14:45:07;3.38;;;1.80;;
42146;SDS011;27815;43.410;11.852;2023-07-31T14:49:11;3.22;;;1.70;;
42146;SDS011;27815;43.410;11.852;2023-07-31T14:53:13;3.50;;;1.63;;
42146;SDS011;27815;43.410;11.852;2023-07-31T14:57:16;2.88;;;1.67;;
42146;SDS011;27815;43.410;11.852;2023-07-31T15:01:19;4.22;;;1.60;;
42146;SDS011;27815;43.410;11.852;2023-07-31T15:05:23;3.60;;;1.40;;
42146;SDS011;27815;43.410;11.852;2023-07-31T15:09:25;3.75;;;1.90;;
42146;SDS011;27815;43.410;11.852;2023-07-31T15:13:28;3.13;;;1.50;;
42146;SDS011;27815;43.410;11.852;2023-07-31T15:17:31;3.92;;;1.75;;
42146;SDS011;27815;43.410;11.852;2023-07-31T15:21:34;4.35;;;1.95;;
42146;SDS011;27815;43.410;11.852;2023-07-31T15:25:37;3.53;;;1.50;;
42146;SDS011;27815;43.410;11.852;2023-07-31T15:29:40;3.72;;;1.77;;
42146;SDS011;27815;43.410;11.852;2023-07-31T15:33:43;3.72;;;1.70;;
42146;SDS011;27815;43.410;11.852;2023-07-31T15:37:48;3.30;;;1.65;;
42146;SDS011;27815;43.410;11.852;2023-07-31T15:41:51;3.55;;;1.70;;
42146;SDS011;27815;43.410;11.852;2023-07-31T15:45:54;2.50;;;1.38;;
42146;SDS011;27815;43.410;11.852;2023-07-31T15:49:57;3.88;;;1.75;;
42146;SDS011;27815;43.410;11.852;2023-07-31T15:54:00;4.97;;;1.55;;
42146;SDS011;27815;43.410;11.852;2023-07-31T15:58:03;2.95;;;1.33;;
42146;SDS011;27815;43.410;11.852;2023-07-31T16:02:06;5.28;;;2.30;;
42146;SDS011;27815;43.410;11.852;2023-07-31T16:06:12;3.83;;;2.08;;
42146;SDS011;27815;43.410;11.852;2023-07-31T16:10:15;7.20;;;2.05;;
42146;SDS011;27815;43.410;11.852;2023-07-31T16:14:18;4.88;;;2.13;;
42146;SDS011;27815;43.410;11.852;2023-07-31T16:18:21;7.65;;;2.20;;
42146;SDS011;27815;43.410;11.852;2023-07-31T16:22:24;5.13;;;1.98;;
42146;SDS011;27815;43.410;11.852;2023-07-31T16:26:27;3.90;;;1.85;;
42146;SDS011;27815;43.410;11.852;2023-07-31T16:30:31;5.53;;;1.73;;
42146;SDS011;27815;43.410;11.852;2023-07-31T16:34:36;5.20;;;1.80;;
42146;SDS011;27815;43.410;11.852;2023-07-31T16:38:39;19.63;;;2.33;;
42146;SDS011;27815;43.410;11.852;2023-07-31T16:42:44;4.28;;;1.92;;
42146;SDS011;27815;43.410;11.852;2023-07-31T16:46:47;4.15;;;1.70;;
42146;SDS011;27815;43.410;11.852;2023-07-31T16:50:50;10.52;;;2.20;;
42146;SDS011;27815;43.410;11.852;2023-07-31T16:54:53;8.90;;;2.20;;
42146;SDS011;27815;43.410;11.852;2023-07-31T16:58:57;10.38;;;2.47;;
42146;SDS011;27815;43.410;11.852;2023-07-31T17:03:03;6.82;;;2.22;;
42146;SDS011;27815;43.410;11.852;2023-07-31T17:07:11;3.90;;;2.28;;
42146;SDS011;27815;43.410;11.852;2023-07-31T17:11:15;9.80;;;2.30;;
42146;SDS011;27815;43.410;11.852;2023-07-31T17:15:18;6.47;;;2.30;;
42146;SDS011;27815;43.410;11.852;2023-07-31T17:19:21;4.90;;;1.65;;
42146;SDS011;27815;43.410;11.852;2023-07-31T17:23:25;10.73;;;3.08;;
42146;SDS011;27815;43.410;11.852;2023-07-31T17:27:28;15.30;;;3.25;;
42146;SDS011;27815;43.410;11.852;2023-07-31T17:31:31;4.95;;;2.53;;
42146;SDS011;27815;43.410;11.852;2023-07-31T17:35:36;6.07;;;2.25;;
42146;SDS011;27815;43.410;11.852;2023-07-31T17:39:40;3.72;;;2.10;;
42146;SDS011;27815;43.410;11.852;2023-07-31T17:43:43;17.65;;;4.20;;
42146;SDS011;27815;43.410;11.852;2023-07-31T17:47:47;5.93;;;2.10;;
42146;SDS011;27815;43.410;11.852;2023-07-31T17:51:50;4.60;;;1.60;;
42146;SDS011;27815;43.410;11.852;2023-07-31T17:55:53;6.60;;;1.88;;
42146;SDS011;27815;43.410;11.852;2023-07-31T17:59:56;3.03;;;1.52;;
42146;SDS011;27815;43.410;11.852;2023-07-31T18:03:59;5.78;;;2.15;;
42146;SDS011;27815;43.410;11.852;2023-07-31T18:08:03;4.00;;;2.10;;
42146;SDS011;27815;43.410;11.852;2023-07-31T18:12:07;6.60;;;1.90;;
42146;SDS011;27815;43.410;11.852;2023-07-31T18:16:10;3.90;;;2.05;;
42146;SDS011;27815;43.410;11.852;2023-07-31T18:20:15;4.18;;;1.77;;
42146;SDS011;27815;43.410;11.852;2023-07-31T18:24:18;4.72;;;1.85;;
42146;SDS011;27815;43.410;11.852;2023-07-31T18:28:21;3.90;;;2.00;;
42146;SDS011;27815;43.410;11.852;2023-07-31T18:32:24;4.03;;;1.98;;
42146;SDS011;27815;43.410;11.852;2023-07-31T18:36:27;4.57;;;2.10;;
42146;SDS011;27815;43.410;11.852;2023-07-31T18:40:32;5.10;;;2.08;;
42146;SDS011;27815;43.410;11.852;2023-07-31T18:44:37;6.03;;;2.30;;
42146;SDS011;27815;43.410;11.852;2023-07-31T18:48:40;6.07;;;2.00;;
42146;SDS011;27815;43.410;11.852;2023-07-31T18:52:42;5.07;;;1.90;;
42146;SDS011;27815;43.410;11.852;2023-07-31T18:56:45;5.35;;;2.60;;
42146;SDS011;27815;43.410;11.852;2023-07-31T19:00:48;4.88;;;2.22;;
42146;SDS011;27815;43.410;11.852;2023-07-31T19:04:51;4.03;;;2.08;;
42146;SDS011;27815;43.410;11.852;2023-07-31T19:08:55;5.85;;;2.17;;
42146;SDS011;27815;43.410;11.852;2023-07-31T19:12:58;7.80;;;1.98;;
42146;SDS011;27815;43.410;11.852;2023-07-31T19:17:01;7.28;;;2.40;;
42146;SDS011;27815;43.410;11.852;2023-07-31T19:21:04;7.90;;;3.22;;
42146;SDS011;27815;43.410;11.852;2023-07-31T19:25:08;4.38;;;2.40;;
42146;SDS011;27815;43.410;11.852;2023-07-31T19:29:13;3.95;;;1.90;;
42146;SDS011;27815;43.410;11.852;2023-07-31T19:33:18;5.28;;;2.17;;
42146;SDS011;27815;43.410;11.852;2023-07-31T19:37:26;7.00;;;2.15;;
42146;SDS011;27815;43.410;11.852;2023-07-31T19:41:30;4.13;;;2.10;;
42146;SDS011;27815;43.410;11.852;2023-07-31T19:45:34;6.72;;;2.53;;
42146;SDS011;27815;43.410;11.852;2023-07-31T19:49:37;5.45;;;1.67;;
42146;SDS011;27815;43.410;11.852;2023-07-31T19:53:41;5.22;;;2.10;;
42146;SDS011;27815;43.410;11.852;2023-07-31T19:57:51;4.72;;;1.98;;
42146;SDS011;27815;43.410;11.852;2023-07-31T20:01:57;6.45;;;2.00;;
42146;SDS011;27815;43.410;11.852;2023-07-31T20:06:04;4.10;;;1.85;;
42146;SDS011;27815;43.410;11.852;2023-07-31T20:10:10;3.45;;;1.63;;
42146;SDS011;27815;43.410;11.852;2023-07-31T20:14:35;6.25;;;2.30;;
42146;SDS011;27815;43.410;11.852;2023-07-31T20:18:50;4.65;;;1.95;;
42146;SDS011;27815;43.410;11.852;2023-07-31T20:23:12;3.75;;;1.90;;
42146;SDS011;27815;43.410;11.852;2023-07-31T20:27:42;4.07;;;1.88;;
42146;SDS011;27815;43.410;11.852;2023-07-31T20:31:49;4.82;;;1.77;;
42146;SDS011;27815;43.410;11.852;2023-07-31T20:36:09;3.83;;;2.00;;
42146;SDS011;27815;43.410;11.852;2023-07-31T20:40:20;4.13;;;1.65;;
42146;SDS011;27815;43.410;11.852;2023-07-31T20:44:24;4.07;;;1.75;;
42146;SDS011;27815;43.410;11.852;2023-07-31T20:48:30;5.82;;;2.20;;
42146;SDS011;27815;43.410;11.852;2023-07-31T20:52:33;3.92;;;2.05;;
42146;SDS011;27815;43.410;11.852;2023-07-31T20:56:42;3.40;;;1.80;;
42146;SDS011;27815;43.410;11.852;2023-07-31T21:00:48;5.53;;;1.80;;
42146;SDS011;27815;43.410;11.852;2023-07-31T21:05:07;3.92;;;1.75;;
42146;SDS011;27815;43.410;11.852;2023-07-31T21:09:16;5.15;;;2.13;;
42146;SDS011;27815;43.410;11.852;2023-07-31T21:13:24;4.85;;;2.00;;
42146;SDS011;27815;43.410;11.852;2023-07-31T21:17:38;4.00;;;2.20;;
42146;SDS011;27815;43.410;11.852;2023-07-31T21:21:43;5.05;;;1.90;;
42146;SDS011;27815;43.410;11.852;2023-07-31T21:25:48;4.25;;;1.90;;
42146;SDS011;27815;43.410;11.852;2023-07-31T21:29:52;3.72;;;2.03;;
42146;SDS011;27815;43.410;11.852;2023-07-31T21:33:55;7.00;;;2.35;;
42146;SDS011;27815;43.410;11.852;2023-07-31T21:38:01;4.78;;;1.73;;
42146;SDS011;27815;43.410;11.852;2023-07-31T21:42:08;5.38;;;1.83;;
42146;SDS011;27815;43.410;11.852;2023-07-31T21:46:11;6.13;;;2.53;;
42146;SDS011;27815;43.410;11.852;2023-07-31T21:50:14;6.00;;;1.92;;
42146;SDS011;27815;43.410;11.852;2023-07-31T21:54:17;4.88;;;2.00;;
42146;SDS011;27815;43.410;11.852;2023-07-31T21:58:20;4.45;;;1.83;;
42146;SDS011;27815;43.410;11.852;2023-07-31T22:02:25;4.53;;;2.30;;
42146;SDS011;27815;43.410;11.852;2023-07-31T22:06:28;4.75;;;1.90;;
42146;SDS011;27815;43.410;11.852;2023-07-31T22:10:31;4.28;;;2.08;;
42146;SDS011;27815;43.410;11.852;2023-07-31T22:14:34;5.10;;;2.15;;
42146;SDS011;27815;43.410;11.852;2023-07-31T22:18:37;5.32;;;2.20;;
42146;SDS011;27815;43.410;11.852;2023-07-31T22:22:40;4.70;;;2.17;;
42146;SDS011;27815;43.410;11.852;2023-07-31T22:26:43;4.95;;;1.90;;
42146;SDS011;27815;43.410;11.852;2023-07-31T22:30:45;4.82;;;2.03;;
42146;SDS011;27815;43.410;11.852;2023-07-31T22:34:49;6.05;;;2.03;;
42146;SDS011;27815;43.410;11.852;2023-07-31T22:38:51;5.93;;;2.40;;
42146;SDS011;27815;43.410;11.852;2023-07-31T22:42:54;4.15;;;1.70;;
42146;SDS011;27815;43.410;11.852;2023-07-31T22:46:59;4.15;;;1.90;;
42146;SDS011;27815;43.410;11.852;2023-07-31T22:51:02;3.90;;;2.00;;
42146;SDS011;27815;43.410;11.852;2023-07-31T22:55:05;3.80;;;2.08;;
42146;SDS011;27815;43.410;11.852;2023-07-31T22:59:08;5.13;;;2.20;;
42146;SDS011;27815;43.410;11.852;2023-07-31T23:03:10;4.82;;;2.10;;
42146;SDS011;27815;43.410;11.852;2023-07-31T23:07:13;4.70;;;2.15;;
42146;SDS011;27815;43.410;11.852;2023-07-31T23:11:17;4.47;;;2.20;;
42146;SDS011;27815;43.410;11.852;2023-07-31T23:15:19;8.00;;;2.38;;
42146;SDS011;27815;43.410;11.852;2023-07-31T23:19:22;4.47;;;2.30;;
42146;SDS011;27815;43.410;11.852;2023-07-31T23:23:26;3.78;;;1.95;;
42146;SDS011;27815;43.410;11.852;2023-07-31T23:27:29;5.40;;;2.58;;
42146;SDS011;27815;43.410;11.852;2023-07-31T23:31:32;5.00;;;2.33;;
42146;SDS011;27815;43.410;11.852;2023-07-31T23:35:35;4.68;;;2.17;;
42146;SDS011;27815;43.410;11.852;2023-07-31T23:39:38;6.32;;;2.13;;
42146;SDS011;27815;43.410;11.852;2023-07-31T23:43:41;7.20;;;2.60;;
42146;SDS011;27815;43.410;11.852;2023-07-31T23:47:47;5.43;;;2.65;;
42146;SDS011;27815;43.410;11.852;2023-07-31T23:51:51;5.00;;;2.35;;
42146;SDS011;27815;43.410;11.852;2023-07-31T23:55:54;3.97;;;2.25;;
42146;SDS011;27815;43.410;11.852;2023-07-31T23:59:57;5.95;;;2.45;;
